createdAt,value
2023-02-16T00:00:43.744Z,34.70
2023-02-16T00:03:15.984Z,37.67
2023-02-16T00:05:43.959Z,37.53
2023-02-16T00:08:11.887Z,37.67
2023-02-16T00:10:39.961Z,39.10
2023-02-16T00:13:43.708Z,37.35
2023-02-16T00:16:15.955Z,34.90
2023-02-16T00:18:43.877Z,28.45
2023-02-16T00:21:11.866Z,37.90
2023-02-16T00:23:39.884Z,36.83
2023-02-16T00:26:13.972Z,34.70
2023-02-16T00:28:42.146Z,36.28
2023-02-16T00:31:19.106Z,36.35
2023-02-16T00:33:47.265Z,36.22
2023-02-16T00:36:15.519Z,36.28
2023-02-16T00:38:43.419Z,37.50
2023-02-16T00:41:40.184Z,35.22
2023-02-16T00:44:15.534Z,38.03
2023-02-16T00:46:43.780Z,34.58
2023-02-16T00:49:16.023Z,35.80
2023-02-16T00:51:43.941Z,36.35
2023-02-16T00:54:11.957Z,37.30
2023-02-16T00:56:40.227Z,39.78
2023-02-16T00:59:10.312Z,38.40
2023-02-16T01:01:38.944Z,37.10
2023-02-16T01:04:07.779Z,37.58
2023-02-16T01:06:54.241Z,40.55
2023-02-16T01:09:40.714Z,41.97
2023-02-16T01:12:14.847Z,42.10
2023-02-16T01:14:43.946Z,46.67
2023-02-16T01:17:12.024Z,41.97
2023-02-16T01:19:39.993Z,40.83
2023-02-16T01:22:08.021Z,37.50
2023-02-16T01:24:36.022Z,39.20
2023-02-16T01:27:04.107Z,37.20
2023-02-16T01:29:32.096Z,39.15
2023-02-16T01:32:00.106Z,36.78
2023-02-16T01:34:28.088Z,38.45
2023-02-16T01:36:59.075Z,36.28
2023-02-16T01:39:26.977Z,35.92
2023-02-16T01:42:12.774Z,36.25
2023-02-16T01:44:54.300Z,35.15
2023-02-16T01:47:56.823Z,36.88
2023-02-16T01:50:26.281Z,35.33
2023-02-16T01:52:57.686Z,36.85
2023-02-16T01:55:30.754Z,34.92
2023-02-16T01:58:15.826Z,36.03
2023-02-16T02:00:52.801Z,37.53
2023-02-16T02:03:40.901Z,34.80
2023-02-16T02:06:13.319Z,37.50
2023-02-16T02:08:44.088Z,37.58
2023-02-16T02:11:18.453Z,35.00
2023-02-16T02:14:16.582Z,38.08
2023-02-16T02:16:58.533Z,35.10
2023-02-16T02:19:28.608Z,36.90
2023-02-16T02:22:34.159Z,33.53
2023-02-16T02:25:06.311Z,34.10
2023-02-16T02:27:36.635Z,34.75
2023-02-16T02:30:18.047Z,34.92
2023-02-16T02:32:50.176Z,35.05
2023-02-16T02:35:35.103Z,34.85
2023-02-16T02:38:11.102Z,33.25
2023-02-16T02:40:42.126Z,33.65
2023-02-16T02:43:10.260Z,36.35
2023-02-16T02:45:42.084Z,34.33
2023-02-16T02:48:10.236Z,34.58
2023-02-16T02:51:08.470Z,35.05
2023-02-16T02:53:42.956Z,35.55
2023-02-16T02:56:30.315Z,37.17
2023-02-16T02:59:20.913Z,37.05
2023-02-16T03:01:50.952Z,38.88
2023-02-16T03:04:22.381Z,38.03
2023-02-16T03:06:52.737Z,41.67
2023-02-16T03:09:20.907Z,38.75
2023-02-16T03:12:08.859Z,39.60
2023-02-16T03:14:43.476Z,39.78
2023-02-16T03:17:35.223Z,38.08
2023-02-16T03:20:24.057Z,39.17
2023-02-16T03:23:11.141Z,39.05
2023-02-16T03:25:58.359Z,40.42
2023-02-16T03:28:46.704Z,39.80
2023-02-16T03:31:22.817Z,39.60
2023-02-16T03:33:55.254Z,41.20
2023-02-16T03:36:24.490Z,38.95
2023-02-16T03:38:52.849Z,37.38
2023-02-16T03:41:20.904Z,36.97
2023-02-16T03:43:48.926Z,37.17
2023-02-16T03:46:16.929Z,36.55
2023-02-16T03:48:44.922Z,36.38
2023-02-16T03:51:12.715Z,35.47
2023-02-16T03:53:40.700Z,35.33
2023-02-16T03:56:08.899Z,36.03
2023-02-16T03:58:36.682Z,34.10
2023-02-16T04:01:04.892Z,33.22
2023-02-16T04:03:33.988Z,32.10
2023-02-16T04:06:02.483Z,34.67
2023-02-16T04:08:30.491Z,31.65
2023-02-16T04:10:58.512Z,32.22
2023-02-16T04:13:26.289Z,34.13
2023-02-16T04:15:54.802Z,30.80
2023-02-16T04:18:22.628Z,33.55
2023-02-16T04:20:50.617Z,32.33
2023-02-16T04:23:18.400Z,33.83
2023-02-16T04:25:46.341Z,33.08
2023-02-16T04:28:14.222Z,34.22
2023-02-16T04:30:42.032Z,31.75
2023-02-16T04:33:10.135Z,32.75
2023-02-16T04:35:37.939Z,31.77
2023-02-16T04:38:05.985Z,30.95
2023-02-16T04:40:33.952Z,34.05
2023-02-16T04:43:02.007Z,32.22
2023-02-16T04:45:29.986Z,34.30
2023-02-16T04:47:57.899Z,35.80
2023-02-16T04:50:25.812Z,32.03
2023-02-16T04:52:53.833Z,32.90
2023-02-16T04:55:21.976Z,33.90
2023-02-16T04:57:50.379Z,33.35
2023-02-16T05:00:18.582Z,33.70
2023-02-16T05:02:46.533Z,33.55
2023-02-16T05:05:14.656Z,34.10
2023-02-16T05:07:42.548Z,34.70
2023-02-16T05:10:10.447Z,32.65
2023-02-16T05:12:57.026Z,34.90
2023-02-16T05:15:25.504Z,51.58
2023-02-16T05:18:02.610Z,34.55
2023-02-16T05:20:49.492Z,33.80
2023-02-16T05:23:17.433Z,32.50
2023-02-16T05:25:45.430Z,33.42
2023-02-16T05:28:13.510Z,33.05
2023-02-16T05:30:49.585Z,32.85
2023-02-16T05:33:20.161Z,33.83
2023-02-16T05:35:48.058Z,31.17
2023-02-16T05:38:15.907Z,31.90
2023-02-16T05:40:43.782Z,34.92
2023-02-16T05:43:11.586Z,33.30
2023-02-16T05:45:39.720Z,31.95
2023-02-16T05:48:07.615Z,31.13
2023-02-16T05:50:35.499Z,31.77
2023-02-16T05:53:03.586Z,33.53
2023-02-16T05:55:31.497Z,36.25
2023-02-16T05:57:59.554Z,37.17
2023-02-16T06:00:27.887Z,32.35
2023-02-16T06:02:55.742Z,32.08
2023-02-16T06:05:23.734Z,33.70
2023-02-16T06:07:51.680Z,44.63
2023-02-16T06:10:19.727Z,38.47
2023-02-16T06:12:47.731Z,33.45
2023-02-16T06:15:15.559Z,38.72
2023-02-16T06:17:44.883Z,33.92
2023-02-16T06:20:13.062Z,30.20
2023-02-16T06:22:41.000Z,33.72
2023-02-16T06:25:10.294Z,32.08
2023-02-16T06:27:38.105Z,33.15
2023-02-16T06:30:06.398Z,30.90
2023-02-16T06:32:34.324Z,47.97
2023-02-16T06:35:02.363Z,38.55
2023-02-16T06:37:30.204Z,32.85
2023-02-16T06:39:58.100Z,31.60
2023-02-16T06:42:25.970Z,46.72
2023-02-16T06:44:53.772Z,35.80
2023-02-16T06:47:22.765Z,32.13
2023-02-16T06:49:50.535Z,33.22
2023-02-16T06:52:18.772Z,33.90
2023-02-16T06:54:47.823Z,34.03
2023-02-16T06:57:15.752Z,33.85
2023-02-16T06:59:43.615Z,33.50
2023-02-16T07:02:11.968Z,36.10
2023-02-16T07:04:39.770Z,34.47
2023-02-16T07:07:07.772Z,35.15
2023-02-16T07:09:41.976Z,34.70
2023-02-16T07:12:09.766Z,31.95
2023-02-16T07:14:37.737Z,33.90
2023-02-16T07:17:06.155Z,35.60
2023-02-16T07:19:34.035Z,35.83
2023-02-16T07:22:02.506Z,38.67
2023-02-16T07:24:30.352Z,35.72
2023-02-16T07:26:58.861Z,36.78
2023-02-16T07:29:26.594Z,34.53
2023-02-16T07:31:56.724Z,35.58
2023-02-16T07:34:24.774Z,36.50
2023-02-16T07:36:52.765Z,36.13
2023-02-16T07:39:20.535Z,41.60
2023-02-16T07:41:48.554Z,37.50
2023-02-16T07:44:19.270Z,36.55
2023-02-16T07:46:47.110Z,37.67
2023-02-16T07:49:15.182Z,37.97
2023-02-16T07:51:43.132Z,39.10
2023-02-16T07:54:11.304Z,37.50
2023-02-16T07:56:39.095Z,36.45
2023-02-16T07:59:07.005Z,35.70
2023-02-16T08:01:35.384Z,37.03
2023-02-16T08:04:03.182Z,36.45
2023-02-16T08:06:31.092Z,37.28
2023-02-16T08:08:59.076Z,34.22
2023-02-16T08:11:27.296Z,34.83
2023-02-16T08:13:55.305Z,32.25
2023-02-16T08:16:24.443Z,30.98
2023-02-16T08:18:52.552Z,36.00
2023-02-16T08:21:22.076Z,51.83
2023-02-16T08:23:57.569Z,62.25
2023-02-16T08:26:26.405Z,57.97
2023-02-16T08:28:56.519Z,48.38
2023-02-16T08:31:25.627Z,43.63
2023-02-16T08:33:56.810Z,48.05
2023-02-16T08:36:26.517Z,43.88
2023-02-16T08:38:54.745Z,46.70
2023-02-16T08:41:24.025Z,50.30
2023-02-16T08:44:01.077Z,47.88
2023-02-16T08:46:29.927Z,43.65
2023-02-16T08:48:59.778Z,53.10
2023-02-16T08:51:28.994Z,57.10
2023-02-16T08:53:59.055Z,51.75
2023-02-16T08:56:26.986Z,42.42
2023-02-16T08:58:54.917Z,41.25
2023-02-16T09:01:23.900Z,39.80
2023-02-16T09:03:52.270Z,41.03
2023-02-16T09:06:21.584Z,42.03
2023-02-16T09:08:53.365Z,43.80
2023-02-16T09:11:21.578Z,43.22
2023-02-16T09:13:49.872Z,43.33
2023-02-16T09:16:19.107Z,47.08
2023-02-16T09:18:48.284Z,43.35
2023-02-16T09:21:17.208Z,43.67
2023-02-16T09:23:48.742Z,44.17
2023-02-16T09:26:20.366Z,41.75
2023-02-16T09:28:49.068Z,88.97
2023-02-16T09:31:26.430Z,115.07
2023-02-16T09:33:56.235Z,45.20
2023-02-16T09:36:24.456Z,44.53
2023-02-16T09:38:52.255Z,44.38
2023-02-16T09:41:26.846Z,47.20
2023-02-16T09:44:01.285Z,48.45
2023-02-16T09:46:30.309Z,46.05
2023-02-16T09:48:58.919Z,47.83
2023-02-16T09:51:34.712Z,49.08
2023-02-16T09:54:15.385Z,53.63
2023-02-16T09:56:48.084Z,50.13
2023-02-16T09:59:18.964Z,48.47
2023-02-16T10:02:01.792Z,50.25
2023-02-16T10:05:05.380Z,48.85
2023-02-16T10:07:39.538Z,51.25
2023-02-16T10:10:08.668Z,49.08
2023-02-16T10:12:43.675Z,48.92
2023-02-16T10:15:16.477Z,49.85
2023-02-16T10:17:49.836Z,51.83
2023-02-16T10:20:17.812Z,48.72
2023-02-16T10:22:52.627Z,50.40
2023-02-16T10:25:26.782Z,50.28
2023-02-16T10:28:02.535Z,52.38
2023-02-16T10:30:31.901Z,52.10
2023-02-16T10:33:04.042Z,52.25
2023-02-16T10:35:48.680Z,49.10
2023-02-16T10:38:32.217Z,50.22
2023-02-16T10:41:02.574Z,48.30
2023-02-16T10:43:34.397Z,48.97
2023-02-16T10:46:03.547Z,46.53
2023-02-16T10:48:31.665Z,51.45
2023-02-16T10:50:59.385Z,45.63
2023-02-16T10:53:46.049Z,49.05
2023-02-16T10:56:34.318Z,45.72
2023-02-16T10:59:05.513Z,44.63
2023-02-16T11:01:38.773Z,45.08
2023-02-16T11:06:36.606Z,44.67
2023-02-16T11:09:06.596Z,70.78
2023-02-16T11:11:39.588Z,45.60
2023-02-16T11:14:22.670Z,49.00
2023-02-16T11:17:02.892Z,53.00
2023-02-16T11:19:33.447Z,52.17
2023-02-16T11:22:11.650Z,44.53
2023-02-16T11:24:42.369Z,45.55
2023-02-16T11:27:15.372Z,43.13
2023-02-16T11:29:43.354Z,44.15
2023-02-16T11:32:12.268Z,44.72
2023-02-16T11:34:43.263Z,45.72
2023-02-16T11:37:28.445Z,45.33
2023-02-16T11:40:13.912Z,45.50
2023-02-16T11:42:47.236Z,43.80
2023-02-16T11:45:35.340Z,42.33
2023-02-16T11:48:14.096Z,43.75
2023-02-16T11:50:56.851Z,41.70
2023-02-16T11:53:26.777Z,43.90
2023-02-16T11:56:10.831Z,46.35
2023-02-16T11:58:39.143Z,43.92
2023-02-16T12:01:28.205Z,43.90
2023-02-16T12:04:14.697Z,44.95
2023-02-16T12:06:49.943Z,46.35
2023-02-16T12:09:20.774Z,44.58
2023-02-16T12:12:06.260Z,46.00
2023-02-16T12:14:57.181Z,45.63
2023-02-16T12:17:25.815Z,46.22
2023-02-16T12:20:03.708Z,48.17
2023-02-16T12:22:33.297Z,54.60
2023-02-16T12:25:04.167Z,52.13
2023-02-16T12:27:35.045Z,47.05
2023-02-16T12:30:18.546Z,48.22
2023-02-16T12:33:09.278Z,48.03
2023-02-16T12:35:49.442Z,48.40
2023-02-16T12:38:27.076Z,51.47
2023-02-16T12:40:54.829Z,60.03
2023-02-16T12:43:42.926Z,49.95
2023-02-16T12:46:36.757Z,51.33
2023-02-16T12:58:39.989Z,50.17
2023-02-16T13:01:18.946Z,48.05
2023-02-16T13:04:10.456Z,50.75
2023-02-16T13:10:44.123Z,52.58
2023-02-16T13:13:27.751Z,53.03
2023-02-16T13:19:22.330Z,51.17
2023-02-16T13:22:27.893Z,53.33
2023-02-16T13:25:09.469Z,51.80
2023-02-16T13:28:09.121Z,55.17
2023-02-16T13:38:16.634Z,54.25
2023-02-16T13:44:47.540Z,60.30
2023-02-16T13:57:21.908Z,59.20
2023-02-16T14:00:11.783Z,60.75
2023-02-16T14:03:46.431Z,62.78
2023-02-16T14:09:45.863Z,61.35
2023-02-16T14:13:10.314Z,62.08
2023-02-16T14:20:07.398Z,64.85
2023-02-16T14:23:04.960Z,63.42
2023-02-16T14:25:43.921Z,67.40
2023-02-16T14:28:56.990Z,67.90
2023-02-16T14:31:38.917Z,70.63
2023-02-16T14:34:22.256Z,69.15
2023-02-16T14:44:04.635Z,71.30
2023-02-16T14:46:59.996Z,71.97
2023-02-16T14:50:03.083Z,72.70
2023-02-16T14:52:54.911Z,71.57
2023-02-16T14:55:29.495Z,74.15
2023-02-16T14:58:25.227Z,73.10
2023-02-16T15:01:07.186Z,72.90
2023-02-16T15:03:53.819Z,72.28
2023-02-16T15:06:41.347Z,75.28
2023-02-16T15:09:35.517Z,72.78
2023-02-16T15:16:02.468Z,72.53
2023-02-16T15:19:09.319Z,74.53
2023-02-16T15:21:44.246Z,75.05
2023-02-16T15:24:36.656Z,78.32
2023-02-16T15:30:25.489Z,76.97
2023-02-16T15:33:23.411Z,79.38
2023-02-16T15:36:15.235Z,78.80
2023-02-16T15:39:12.252Z,75.93
2023-02-16T15:42:29.243Z,77.03
2023-02-16T15:45:03.116Z,79.88
2023-02-16T15:47:46.081Z,82.70
2023-02-16T15:50:41.054Z,84.55
2023-02-16T15:53:34.961Z,91.15
2023-02-16T15:56:28.996Z,80.72
2023-02-16T15:59:07.929Z,83.15
2023-02-16T16:01:43.287Z,81.95
2023-02-16T16:04:22.546Z,85.47
2023-02-16T16:06:51.504Z,84.22
2023-02-16T16:09:37.629Z,83.60
2023-02-16T16:12:06.893Z,82.53
2023-02-16T16:14:37.276Z,88.63
2023-02-16T16:17:05.969Z,100.30
2023-02-16T16:19:35.185Z,90.40
2023-02-16T16:22:04.423Z,87.20
2023-02-16T16:24:39.085Z,86.22
2023-02-16T16:27:11.750Z,99.38
2023-02-16T16:29:41.655Z,92.22
2023-02-16T16:32:31.792Z,89.32
2023-02-16T16:34:59.985Z,92.78
2023-02-16T16:37:33.942Z,95.38
2023-02-16T16:40:01.937Z,103.95
2023-02-16T16:42:29.856Z,137.48
2023-02-16T16:45:02.304Z,116.38
2023-02-16T16:47:33.608Z,100.80
2023-02-16T16:50:01.460Z,95.20
2023-02-16T16:52:40.233Z,96.75
2023-02-16T16:55:34.451Z,95.05
2023-02-16T16:58:04.694Z,94.07
2023-02-16T17:00:37.036Z,98.55
2023-02-16T17:03:06.141Z,100.47
2023-02-16T17:05:34.641Z,114.05
2023-02-16T17:08:02.500Z,143.20
2023-02-16T17:10:30.624Z,111.95
2023-02-16T17:12:59.652Z,97.07
2023-02-16T17:15:46.400Z,99.88
2023-02-16T17:18:18.881Z,105.10
2023-02-16T17:20:47.392Z,102.25
2023-02-16T17:23:16.108Z,101.25
2023-02-16T17:25:44.177Z,102.03
2023-02-16T17:28:12.676Z,100.05
2023-02-16T17:30:40.943Z,99.30
2023-02-16T17:33:09.769Z,102.82
2023-02-16T17:35:39.155Z,100.13
2023-02-16T17:38:08.294Z,101.50
2023-02-16T17:40:36.552Z,100.68
2023-02-16T17:43:10.891Z,99.75
2023-02-16T17:45:38.827Z,101.13
2023-02-16T17:48:06.817Z,101.03
2023-02-16T17:50:34.860Z,98.18
2023-02-16T17:53:02.799Z,101.03
2023-02-16T17:55:30.945Z,98.80
2023-02-16T17:57:58.808Z,98.75
2023-02-16T18:00:26.652Z,101.80
2023-02-16T18:02:54.512Z,101.32
2023-02-16T18:05:22.383Z,100.25
2023-02-16T18:07:50.337Z,105.70
2023-02-16T18:10:21.640Z,113.25
2023-02-16T18:12:49.449Z,108.05
2023-02-16T18:15:17.544Z,108.68
2023-02-16T18:17:45.336Z,106.57
2023-02-16T18:20:17.728Z,112.00
2023-02-16T18:22:45.675Z,111.00
2023-02-16T18:25:13.695Z,107.78
2023-02-16T18:27:41.556Z,105.40
2023-02-16T18:30:10.271Z,103.00
2023-02-16T18:32:38.376Z,102.63
2023-02-16T18:35:07.042Z,104.05
2023-02-16T18:37:38.619Z,105.30
2023-02-16T18:40:08.622Z,102.30
2023-02-16T18:42:36.864Z,106.07
2023-02-16T18:45:06.697Z,102.53
2023-02-16T18:47:36.250Z,104.90
2023-02-16T18:50:08.147Z,105.25
2023-02-16T18:52:39.573Z,100.72
2023-02-16T18:55:08.521Z,101.28
2023-02-16T18:57:36.715Z,100.57
2023-02-16T19:00:09.000Z,104.00
2023-02-16T19:02:38.349Z,106.05
2023-02-16T19:05:10.027Z,100.97
2023-02-16T19:07:38.253Z,99.07
2023-02-16T19:10:08.441Z,104.07
2023-02-16T19:12:44.850Z,103.43
2023-02-16T19:15:17.693Z,99.88
2023-02-16T19:17:47.596Z,102.43
2023-02-16T19:20:18.817Z,107.30
2023-02-16T19:22:47.613Z,104.50
2023-02-16T19:25:15.957Z,102.15
2023-02-16T19:27:44.723Z,106.72
2023-02-16T19:30:13.184Z,101.85
2023-02-16T19:32:41.312Z,98.95
2023-02-16T19:35:09.964Z,98.90
2023-02-16T19:37:37.828Z,103.60
2023-02-16T19:40:10.019Z,99.35
2023-02-16T19:42:38.269Z,98.75
2023-02-16T19:45:06.593Z,101.05
2023-02-16T19:47:34.900Z,103.93
2023-02-16T19:50:02.853Z,101.57
2023-02-16T19:52:30.973Z,109.35
2023-02-16T19:54:59.169Z,103.93
2023-02-16T19:57:27.084Z,104.22
2023-02-16T19:59:54.887Z,102.20
2023-02-16T20:02:22.982Z,107.40
2023-02-16T20:04:50.992Z,101.55
2023-02-16T20:07:19.132Z,140.98
2023-02-16T20:09:46.978Z,121.60
2023-02-16T20:12:15.648Z,108.40
2023-02-16T20:14:43.785Z,108.35
2023-02-16T20:17:11.902Z,124.22
2023-02-16T20:19:40.129Z,103.45
2023-02-16T20:22:08.071Z,97.45
2023-02-16T20:24:36.614Z,101.57
2023-02-16T20:27:04.637Z,101.57
2023-02-16T20:29:32.868Z,101.25
2023-02-16T20:32:00.927Z,104.53
2023-02-16T20:34:29.143Z,103.65
2023-02-16T20:36:56.993Z,103.70
2023-02-16T20:39:25.021Z,103.13
2023-02-16T20:41:52.963Z,104.40
2023-02-16T20:44:23.086Z,102.30
2023-02-16T20:46:51.393Z,99.72
2023-02-16T20:49:22.252Z,102.32
2023-02-16T20:51:50.216Z,100.68
2023-02-16T20:54:18.204Z,102.68
2023-02-16T20:56:46.154Z,102.38
2023-02-16T20:59:14.162Z,104.00
2023-02-16T21:01:51.938Z,100.90
2023-02-16T21:04:20.710Z,101.72
2023-02-16T21:06:48.725Z,97.78
2023-02-16T21:09:17.329Z,99.93
2023-02-16T21:11:45.320Z,101.38
2023-02-16T21:14:13.542Z,106.07
2023-02-16T21:16:41.531Z,102.63
2023-02-16T21:19:21.260Z,122.40
2023-02-16T21:21:50.457Z,108.95
2023-02-16T21:24:18.291Z,104.63
2023-02-16T21:26:46.340Z,103.55
2023-02-16T21:29:15.600Z,104.00
2023-02-16T21:31:44.049Z,102.75
2023-02-16T21:34:12.061Z,110.78
2023-02-16T21:36:40.425Z,105.03
2023-02-16T21:39:08.456Z,104.93
2023-02-16T21:41:39.199Z,102.15
2023-02-16T21:44:08.648Z,101.75
2023-02-16T21:46:46.998Z,99.10
2023-02-16T21:49:16.529Z,99.15
2023-02-16T21:51:45.281Z,101.93
2023-02-16T21:54:16.971Z,98.70
2023-02-16T21:56:53.023Z,101.03
2023-02-16T21:59:24.687Z,97.60
2023-02-16T22:01:52.563Z,94.38
2023-02-16T22:04:22.301Z,149.55
2023-02-16T22:06:51.140Z,100.82
2023-02-16T22:09:20.948Z,95.72
2023-02-16T22:11:50.022Z,96.50
2023-02-16T22:14:18.310Z,114.07
2023-02-16T22:16:51.905Z,96.13
2023-02-16T22:19:23.035Z,97.15
2023-02-16T22:21:51.626Z,95.20
2023-02-16T22:24:20.333Z,92.15
2023-02-16T22:26:49.021Z,95.85
2023-02-16T22:29:17.136Z,94.22
2023-02-16T22:31:49.062Z,94.40
2023-02-16T22:34:18.313Z,95.90
2023-02-16T22:36:46.363Z,93.25
2023-02-16T22:39:14.949Z,91.82
2023-02-16T22:41:42.986Z,93.00
2023-02-16T22:44:11.689Z,91.07
2023-02-16T22:46:39.591Z,88.53
2023-02-16T22:49:07.621Z,93.03
2023-02-16T22:51:35.433Z,93.28
2023-02-16T22:54:03.301Z,93.03
2023-02-16T22:56:31.945Z,94.18
2023-02-16T22:59:00.800Z,94.32
2023-02-16T23:01:29.669Z,89.15
2023-02-16T23:03:58.275Z,92.00
2023-02-16T23:06:31.300Z,93.15
2023-02-16T23:09:03.628Z,90.65
2023-02-16T23:11:31.771Z,89.77
2023-02-16T23:13:59.717Z,89.28
2023-02-16T23:16:28.237Z,91.70
2023-02-16T23:19:07.850Z,96.72
2023-02-16T23:21:35.842Z,91.00
2023-02-16T23:24:03.830Z,88.82
2023-02-16T23:26:32.145Z,89.43
2023-02-16T23:29:02.050Z,92.75
2023-02-16T23:31:34.504Z,90.75
2023-02-16T23:34:02.897Z,87.78
2023-02-16T23:36:31.900Z,91.15
2023-02-16T23:39:00.857Z,90.63
2023-02-16T23:41:28.818Z,90.75
2023-02-16T23:43:56.689Z,87.47
2023-02-16T23:46:24.714Z,88.43
2023-02-16T23:48:52.796Z,90.95
2023-02-16T23:51:20.578Z,88.90
2023-02-16T23:53:48.628Z,90.13
2023-02-16T23:56:17.816Z,93.30
2023-02-16T23:58:46.222Z,90.68
